• Join FlightAware (Why Join?)
  • Login
  • US Flag 
03:14AM EDT


 

Airport Tracker/Info


-or-


 

Live Flight TrackerFlight Track Log ✈ DAL4117 ✈ 07-Apr-2013 ✈ KPHL - KDTW

Flight Track Log - Related Links

Times and Time Zones

All times are in EDT time to prevent confusion due to time zone crossing. See the DAL4117 flight status page for this flight to view local times or setup timezone preferences in your user account.

Time Position Orientation Groundspeed Altitude Reporting Facility
EDT Latitude Longitude Course Direction KTS MPH feet Rate Location/Type
02:57PM 39.8667 -75.2833 239° Southwest 182 209 900  Level Philadelphia TRACON
02:58PM 39.8586 -75.3011 239° Southwest 168 193 2,200 2,820 Climbing FAA TRACON SMA TRACON (SMA)
02:58PM 39.8569 -75.3228 264° West 195 224 3,200 3,300 Climbing FAA TRACON SMA TRACON (SMA)
02:58PM 39.8550 -75.3492 265° West 193 222 4,400 2,520 Climbing FAA TRACON SMA TRACON (SMA)
02:59PM 39.8561 -75.3722 274° West 225 259 4,900 1,920 Climbing FAA TRACON SMA TRACON (SMA)
02:59PM 39.8575 -75.4000 274° West 244 281 5,700 2,820 Climbing FAA TRACON SMA TRACON (SMA)
02:59PM 39.8600 -75.4339 276° West 243 280 6,800 3,120 Climbing FAA TRACON SMA TRACON (SMA)
03:00PM 39.8619 -75.4614 275° West 246 283 7,800 2,700 Climbing FAA TRACON SMA TRACON (SMA)
03:00PM 39.8639 -75.4886 275° West 248 285 8,600 2,700 Climbing FAA TRACON SMA TRACON (SMA)
03:00PM 39.8675 -75.5244 277° West 252 290 9,600 2,100 Climbing FAA TRACON SMA TRACON (SMA)
03:01PM 39.8686 -75.5522 273° West 257 296 10,000 720 Climbing FAA TRACON SMA TRACON (SMA)
03:01PM 39.8703 -75.5833 274° West 264 304 10,100 600 Climbing FAA TRACON SMA TRACON (SMA)
03:01PM 39.8778 -75.6231 284° West 300 345 10,400 1,200 Climbing FAA TRACON SMA TRACON (SMA)
03:02PM 39.8897 -75.6542 297° West 313 360 10,900 1,560 Climbing FAA TRACON SMA TRACON (SMA)
03:02PM 39.9003 -75.6825 296° West 308 354 11,500 2,100 Climbing FAA TRACON SMA TRACON (SMA)
03:02PM 39.9153 -75.7225 296° West 314 361 12,300 2,460 Climbing FAA TRACON SMA TRACON (SMA)
03:03PM 39.9253 -75.7569 291° West 317 365 13,100 2,220 Climbing FAA TRACON SMA TRACON (SMA)
03:03PM 39.9361 -75.7875 295° West 314 361 13,800 2,100 Climbing FAA TRACON SMA TRACON (SMA)
03:03PM 39.9497 -75.8286 293° West 312 359 14,500 1,920 Climbing FAA TRACON SMA TRACON (SMA)
03:04PM 39.9608 -75.8617 294° West 313 360 15,100 1,500 Climbing FAA TRACON SMA TRACON (SMA)
03:04PM 39.9714 -75.8917 295° West 316 364 15,500 1,500 Climbing FAA TRACON SMA TRACON (SMA)
03:04PM 39.9844 -75.9342 292° West 323 372 16,100 1,620 Climbing FAA TRACON SMA TRACON (SMA)
03:05PM 39.9953 -75.9700 292° West 322 371 16,600 1,320 Climbing FAA TRACON SMA TRACON (SMA)
03:05PM 40.0019 -75.9994 286° West 323 372 17,000 1,320 Climbing FAA TRACON SMA TRACON (SMA)
03:05PM 40.0069 -76.0397 279° West 321 369 17,500 1,020 Climbing FAA TRACON SMA TRACON (SMA)
03:06PM 40.0106 -76.0842 276° West 327 376 17,700 720 Climbing FAA TRACON SMA TRACON (SMA)
03:06PM 40.0131 -76.1092 277° West 325 374 18,000 300 Climbing FAA TRACON SMA TRACON (SMA)
03:07PM 40.0131 -76.1092 150° Southeast 325 374 18,000 960 Level FAA TRACON SMA TRACON (SMA)
03:08PM 40.0406 -76.4269 277° West 349 402 20,500 1,200 Climbing New York Center
03:09PM 40.0467 -76.5550 274° West 354 407 21,500 1,020 Climbing New York Center
03:10PM 40.0528 -76.6856 274° West 354 407 22,600 1,020 Climbing New York Center
03:11PM 40.0567 -76.8133 272° West 354 407 23,600 1,020 Climbing New York Center
03:12PM 40.0625 -76.9442 273° West 360 414 24,700 1,020 Climbing New York Center
03:13PM 40.0681 -77.0750 273° West 360 414 25,700 600 Climbing New York Center
03:14PM 40.0736 -77.2031 273° West 360 414 26,000 120 Climbing New York Center
03:15PM 40.0789 -77.3364 273° West 372 428 26,000 300 Level New York Center
03:17PM 40.0919 -77.5761 274° West 367 422 26,900 540 Climbing Cleveland Center
03:18PM 40.0975 -77.7061 273° West 367 422 27,500 600 Climbing Cleveland Center
03:19PM 40.1031 -77.8417 273° West 367 422 28,100 540 Climbing Cleveland Center
03:20PM 40.1058 -77.9664 272° West 358 412 28,600 480 Climbing Cleveland Center
03:21PM 40.1086 -78.0856 272° West 363 418 29,100 480 Climbing Cleveland Center
03:22PM 40.1136 -78.2186 273° West 363 418 29,600 420 Climbing Cleveland Center
03:23PM 40.1161 -78.3514 271° West 363 418 30,000 180 Climbing Cleveland Center
03:24PM 40.1103 -78.4792 267° West 363 418 30,000 -120 Level Cleveland Center
03:25PM 40.0981 -78.6072 263° West 363 418 29,800 -780 Descending Cleveland Center
03:26PM 40.1086 -78.7372 276° West 368 423 28,500 -900 Descending Cleveland Center
03:27PM 40.1439 -78.8611 290° West 367 422 28,000 -300 Descending Cleveland Center
03:28PM 40.1789 -78.9825 291° West 367 422 28,000  Level Cleveland Center
03:29PM 40.2139 -79.1069 290° West 367 422 28,000  Level Cleveland Center
03:30PM 40.2489 -79.2311 290° West 367 422 28,000  Level Cleveland Center
03:31PM 40.2922 -79.3692 292° West 367 422 28,000  Level Cleveland Center
03:32PM 40.3289 -79.4964 291° West 367 422 28,000  Level Cleveland Center
03:33PM 40.3656 -79.6267 290° West 367 422 28,000  Level Cleveland Center
03:34PM 40.4019 -79.7542 291° West 372 428 28,000  Level Cleveland Center
03:35PM 40.4381 -79.8819 290° West 372 428 28,000  Level Cleveland Center
03:36PM 40.4658 -79.9856 289° West 372 428 28,000  Level Cleveland Center
03:37PM 40.5039 -80.1269 290° West 372 428 28,000  Level Cleveland Center
03:38PM 40.5378 -80.2553 289° West 372 428 28,000  Level Cleveland Center
03:39PM 40.5756 -80.3808 292° West 372 428 28,000  Level Cleveland Center
03:40PM 40.6342 -80.5147 300° West 372 428 28,000  Level Cleveland Center
03:41PM 40.6925 -80.6353 303° West 384 442 28,000  Level Cleveland Center
03:42PM 40.7467 -80.7367 305° West 384 442 28,000  Level Cleveland Center
03:43PM 40.8069 -80.8519 305° West 384 442 28,000  Level Cleveland Center
03:44PM 40.8628 -80.9703 302° West 389 448 28,000  Level Cleveland Center
03:45PM 40.9247 -81.1053 301° West 395 455 28,000  Level Cleveland Center
03:46PM 40.9825 -81.2211 303° West 389 448 28,000  Level Cleveland Center
03:47PM 41.0422 -81.3428 303° West 389 448 28,000  Level Cleveland Center
03:48PM 41.0997 -81.4622 303° West 389 448 28,000  Level Cleveland Center
03:49PM 41.1531 -81.5650 305° West 389 448 28,000  Level Cleveland Center
03:50PM 41.2125 -81.6844 304° West 389 448 28,000  Level Cleveland Center
03:51PM 41.2697 -81.8014 303° West 389 448 28,000 -900 Level Cleveland Center
03:52PM 41.3267 -81.9242 302° West 394 453 26,200 -1,980 Descending Cleveland Center
03:53PM 41.3836 -82.0500 301° West 394 453 24,100 -2,280 Descending Cleveland Center
03:54PM 41.4464 -82.1842 302° West 394 453 21,700 -2,220 Descending Cleveland Center
03:55PM 41.4969 -82.2908 302° West 376 433 19,700 -1,860 Descending Cleveland Center
03:56PM 41.5433 -82.3919 302° West 344 396 18,000 -1,740 Descending Cleveland Center
03:57PM 41.5936 -82.4989 302° West 330 380 16,300 -1,740 Descending Cleveland Center
03:57PM 41.6161 -82.5383 307° West 335 386 15,600 -1,440 Descending Cleveland Center
03:58PM 41.6381 -82.5947 298° West 335 386 14,900 -1,680 Descending Cleveland Center
03:58PM 41.6603 -82.6344 307° West 340 391 14,100 -2,040 Descending Cleveland Center
03:59PM 41.6922 -82.7106 299° West 335 386 12,900 -1,800 Descending Cleveland Center
03:59PM 41.7122 -82.7472 306° West 334 384 12,300 -900 Descending Cleveland Center
04:00PM 41.7444 -82.8039 307° West 335 386 12,000 -300 Descending Cleveland Center
04:00PM 41.7731 -82.8328 323° Northwest 314 361 12,000  Level Cleveland Center
04:01PM 41.8117 -82.8844 315° West 322 371 12,000  Level Cleveland Center
04:01PM 41.8383 -82.9131 321° Northwest 317 365 12,000  Level Cleveland Center
04:02PM 41.8789 -82.9647 317° Northwest 316 364 12,000  Level Cleveland Center
04:02PM 41.9056 -82.9936 321° Northwest 325 374 12,000  Level Cleveland Center
04:03PM 41.9461 -83.0428 318° Northwest 321 369 12,000  Level Cleveland Center
04:03PM 41.9767 -83.0803 318° Northwest 323 372 12,000  Level Cleveland Center
04:04PM 42.0131 -83.1264 317° Northwest 321 369 12,000  Level Cleveland Center
04:04PM 42.0436 -83.1611 320° Northwest 319 367 12,000  Level Cleveland Center
04:05PM 42.0700 -83.1958 316° Northwest 310 357 12,000 -300 Level Cleveland Center
04:06PM 42.1008 -83.2139 337° Northwest 233 268 11,700 -1,260 Descending Cleveland Center
04:06PM 42.1467 -83.2228 352° North 243 280 10,600 -1,620 Descending FAA TRACON SMA TRACON (SMA)
04:07PM 42.1675 -83.2275 350° North 245 282 10,100 -1,500 Descending FAA TRACON SMA TRACON (SMA)
04:07PM 42.1883 -83.2294 356° North 259 298 9,600 -1,500 Descending FAA TRACON SMA TRACON (SMA)
04:07PM 42.2128 -83.2131 26° Northeast 263 303 9,100 -1,380 Descending FAA TRACON SMA TRACON (SMA)
04:08PM 42.2308 -83.1986 31° Northeast 254 292 8,700 -1,500 Descending FAA TRACON SMA TRACON (SMA)
04:08PM 42.2525 -83.1825 29° Northeast 249 287 8,100 -1,680 Descending FAA TRACON SMA TRACON (SMA)
04:08PM 42.2722 -83.1672 30° Northeast 248 285 7,600 -1,380 Descending FAA TRACON SMA TRACON (SMA)
04:09PM 42.2908 -83.1536 28° Northeast 246 283 7,200 -1,380 Descending FAA TRACON SMA TRACON (SMA)
04:09PM 42.3119 -83.1375 29° Northeast 246 283 6,700 -1,500 Descending FAA TRACON SMA TRACON (SMA)
04:09PM 42.3325 -83.1242 26° Northeast 244 281 6,200 -1,080 Descending FAA TRACON SMA TRACON (SMA)
04:10PM 42.3508 -83.1117 27° Northeast 242 278 6,000 -300 Descending FAA TRACON SMA TRACON (SMA)
04:10PM 42.3744 -83.0958 26° Northeast 245 282 6,000  Level FAA TRACON SMA TRACON (SMA)
04:10PM 42.3936 -83.0828 27° Northeast 250 288 6,000  Level FAA TRACON SMA TRACON (SMA)
04:11PM 42.4128 -83.0700 26° Northeast 249 287 6,000  Level FAA TRACON SMA TRACON (SMA)
04:11PM 42.4364 -83.0542 26° Northeast 247 284 6,000  Level FAA TRACON SMA TRACON (SMA)
04:11PM 42.4558 -83.0494 10° North 211 243 6,000  Level FAA TRACON SMA TRACON (SMA)
04:12PM 42.4736 -83.0650 327° Northwest 208 239 6,000  Level FAA TRACON SMA TRACON (SMA)
04:12PM 42.4853 -83.0814 314° West 206 237 6,000  Level FAA TRACON SMA TRACON (SMA)
04:12PM 42.4867 -83.1081 274° West 195 224 6,000  Level FAA TRACON SMA TRACON (SMA)
04:13PM 42.4781 -83.1256 236° Southwest 201 231 6,000  Level FAA TRACON SMA TRACON (SMA)
04:13PM 42.4681 -83.1447 235° Southwest 200 230 6,000 120 Level FAA TRACON SMA TRACON (SMA)
04:13PM 42.4503 -83.1611 214° Southwest 184 212 6,100 -180 Climbing FAA TRACON SMA TRACON (SMA)
04:14PM 42.4392 -83.1708 213° Southwest 176 203 5,900 -1,080 Descending FAA TRACON SMA TRACON (SMA)
04:14PM 42.4233 -83.1839 211° Southwest 184 212 5,400 -1,380 Descending FAA TRACON SMA TRACON (SMA)
04:14PM 42.4058 -83.1967 208° Southwest 189 217 5,000 -1,080 Descending FAA TRACON SMA TRACON (SMA)
04:15PM 42.3944 -83.2053 209° Southwest 184 212 4,700 -900 Descending FAA TRACON SMA TRACON (SMA)
04:15PM 42.3656 -83.2264 208° Southwest 177 204 4,100 -1,020 Descending FAA TRACON SMA TRACON (SMA)
04:16PM 42.3486 -83.2392 209° Southwest 185 213 3,700 -1,200 Descending FAA TRACON SMA TRACON (SMA)